sensor_id;sensor_type;location;lat;lon;timestamp;temperature;humidity
7349;DHT22;13010;-33.424;-70.614;2023-02-19T00:00:14;20.60;18.00
7349;DHT22;13010;-33.424;-70.614;2023-02-19T00:03:03;20.70;18.30
7349;DHT22;13010;-33.424;-70.614;2023-02-19T00:05:52;20.50;18.30
7349;DHT22;13010;-33.424;-70.614;2023-02-19T00:08:41;20.50;16.90
7349;DHT22;13010;-33.424;-70.614;2023-02-19T00:11:31;20.50;15.70
7349;DHT22;13010;-33.424;-70.614;2023-02-19T00:14:22;20.40;15.40
7349;DHT22;13010;-33.424;-70.614;2023-02-19T00:17:12;20.30;15.70
7349;DHT22;13010;-33.424;-70.614;2023-02-19T00:20:01;20.10;15.00
7349;DHT22;13010;-33.424;-70.614;2023-02-19T00:22:49;20.10;14.70
7349;DHT22;13010;-33.424;-70.614;2023-02-19T00:25:38;19.60;15.10
7349;DHT22;13010;-33.424;-70.614;2023-02-19T00:28:27;19.10;16.60
7349;DHT22;13010;-33.424;-70.614;2023-02-19T00:31:17;18.70;16.90
7349;DHT22;13010;-33.424;-70.614;2023-02-19T00:34:09;18.30;17.20
7349;DHT22;13010;-33.424;-70.614;2023-02-19T00:36:58;18.10;18.80
7349;DHT22;13010;-33.424;-70.614;2023-02-19T00:39:47;17.90;21.00
7349;DHT22;13010;-33.424;-70.614;2023-02-19T00:42:35;17.80;21.10
7349;DHT22;13010;-33.424;-70.614;2023-02-19T00:45:25;17.80;20.80
7349;DHT22;13010;-33.424;-70.614;2023-02-19T00:48:13;17.70;21.00
7349;DHT22;13010;-33.424;-70.614;2023-02-19T00:51:04;17.60;22.30
7349;DHT22;13010;-33.424;-70.614;2023-02-19T00:53:53;17.50;21.30
7349;DHT22;13010;-33.424;-70.614;2023-02-19T00:56:42;17.30;21.30
7349;DHT22;13010;-33.424;-70.614;2023-02-19T00:59:31;17.30;21.50
7349;DHT22;13010;-33.424;-70.614;2023-02-19T01:02:21;17.30;22.50
7349;DHT22;13010;-33.424;-70.614;2023-02-19T01:05:11;17.40;23.70
7349;DHT22;13010;-33.424;-70.614;2023-02-19T01:08:01;17.40;25.10
7349;DHT22;13010;-33.424;-70.614;2023-02-19T01:10:50;17.30;25.20
7349;DHT22;13010;-33.424;-70.614;2023-02-19T01:13:39;17.10;24.50
7349;DHT22;13010;-33.424;-70.614;2023-02-19T01:16:28;17.00;24.10
7349;DHT22;13010;-33.424;-70.614;2023-02-19T01:19:17;16.80;24.30
7349;DHT22;13010;-33.424;-70.614;2023-02-19T01:22:06;16.50;24.40
7349;DHT22;13010;-33.424;-70.614;2023-02-19T01:24:57;16.40;26.20
7349;DHT22;13010;-33.424;-70.614;2023-02-19T01:27:46;16.30;28.80
7349;DHT22;13010;-33.424;-70.614;2023-02-19T01:30:36;16.30;27.30
7349;DHT22;13010;-33.424;-70.614;2023-02-19T01:33:25;16.50;27.80
7349;DHT22;13010;-33.424;-70.614;2023-02-19T01:36:15;16.40;28.70
7349;DHT22;13010;-33.424;-70.614;2023-02-19T01:39:05;16.20;34.50
7349;DHT22;13010;-33.424;-70.614;2023-02-19T01:41:56;16.00;33.80
7349;DHT22;13010;-33.424;-70.614;2023-02-19T01:45:24;16.00;33.70
7349;DHT22;13010;-33.424;-70.614;2023-02-19T01:48:15;16.00;34.00
7349;DHT22;13010;-33.424;-70.614;2023-02-19T01:51:07;16.00;32.50
7349;DHT22;13010;-33.424;-70.614;2023-02-19T01:53:59;16.10;33.30
7349;DHT22;13010;-33.424;-70.614;2023-02-19T01:56:50;16.50;32.10
7349;DHT22;13010;-33.424;-70.614;2023-02-19T01:59:41;16.80;32.70
7349;DHT22;13010;-33.424;-70.614;2023-02-19T02:02:30;16.60;31.80
7349;DHT22;13010;-33.424;-70.614;2023-02-19T02:05:27;16.00;31.80
7349;DHT22;13010;-33.424;-70.614;2023-02-19T02:08:18;15.90;35.60
7349;DHT22;13010;-33.424;-70.614;2023-02-19T02:11:24;16.00;34.50
7349;DHT22;13010;-33.424;-70.614;2023-02-19T02:14:14;16.00;38.30
7349;DHT22;13010;-33.424;-70.614;2023-02-19T02:17:11;15.60;44.80
7349;DHT22;13010;-33.424;-70.614;2023-02-19T02:20:26;15.80;43.20
7349;DHT22;13010;-33.424;-70.614;2023-02-19T02:23:25;16.20;41.70
7349;DHT22;13010;-33.424;-70.614;2023-02-19T02:26:30;15.90;41.60
7349;DHT22;13010;-33.424;-70.614;2023-02-19T02:32:45;14.90;54.80
7349;DHT22;13010;-33.424;-70.614;2023-02-19T02:35:44;14.80;99.90
7349;DHT22;13010;-33.424;-70.614;2023-02-19T02:38:37;14.50;99.90
7349;DHT22;13010;-33.424;-70.614;2023-02-19T02:41:28;14.30;99.90
7349;DHT22;13010;-33.424;-70.614;2023-02-19T02:44:17;14.30;99.90
7349;DHT22;13010;-33.424;-70.614;2023-02-19T02:47:07;14.20;99.90
7349;DHT22;13010;-33.424;-70.614;2023-02-19T02:50:23;14.10;97.90
7349;DHT22;13010;-33.424;-70.614;2023-02-19T02:53:17;14.00;99.90
7349;DHT22;13010;-33.424;-70.614;2023-02-19T02:56:23;14.70;97.20
7349;DHT22;13010;-33.424;-70.614;2023-02-19T02:59:13;15.10;96.70
7349;DHT22;13010;-33.424;-70.614;2023-02-19T03:02:04;15.10;97.20
7349;DHT22;13010;-33.424;-70.614;2023-02-19T03:05:03;15.10;99.10
7349;DHT22;13010;-33.424;-70.614;2023-02-19T03:08:14;15.20;99.90
7349;DHT22;13010;-33.424;-70.614;2023-02-19T03:11:06;14.80;99.90
7349;DHT22;13010;-33.424;-70.614;2023-02-19T03:14:16;14.70;99.90
7349;DHT22;13010;-33.424;-70.614;2023-02-19T03:17:25;14.80;99.90
7349;DHT22;13010;-33.424;-70.614;2023-02-19T03:20:34;14.10;99.90
7349;DHT22;13010;-33.424;-70.614;2023-02-19T03:23:29;13.80;99.90
7349;DHT22;13010;-33.424;-70.614;2023-02-19T03:26:38;13.40;99.90
7349;DHT22;13010;-33.424;-70.614;2023-02-19T03:29:30;13.20;99.90
7349;DHT22;13010;-33.424;-70.614;2023-02-19T03:32:23;12.80;99.90
7349;DHT22;13010;-33.424;-70.614;2023-02-19T03:35:15;12.60;99.90
7349;DHT22;13010;-33.424;-70.614;2023-02-19T03:38:08;12.60;99.90
7349;DHT22;13010;-33.424;-70.614;2023-02-19T03:41:04;12.60;99.90
7349;DHT22;13010;-33.424;-70.614;2023-02-19T03:44:01;12.70;99.90
7349;DHT22;13010;-33.424;-70.614;2023-02-19T03:46:57;12.70;99.90
7349;DHT22;13010;-33.424;-70.614;2023-02-19T03:49:50;12.60;99.90
7349;DHT22;13010;-33.424;-70.614;2023-02-19T03:52:46;12.70;99.90
7349;DHT22;13010;-33.424;-70.614;2023-02-19T03:55:44;12.90;99.90
7349;DHT22;13010;-33.424;-70.614;2023-02-19T03:58:46;13.10;99.90
7349;DHT22;13010;-33.424;-70.614;2023-02-19T04:01:40;12.90;99.90
7349;DHT22;13010;-33.424;-70.614;2023-02-19T04:04:32;12.60;99.90
7349;DHT22;13010;-33.424;-70.614;2023-02-19T04:07:23;12.50;99.90
7349;DHT22;13010;-33.424;-70.614;2023-02-19T04:10:13;12.30;99.90
7349;DHT22;13010;-33.424;-70.614;2023-02-19T04:13:05;12.00;99.90
7349;DHT22;13010;-33.424;-70.614;2023-02-19T04:16:02;11.80;99.90
7349;DHT22;13010;-33.424;-70.614;2023-02-19T04:18:56;12.20;99.90
7349;DHT22;13010;-33.424;-70.614;2023-02-19T04:21:46;12.50;99.90
7349;DHT22;13010;-33.424;-70.614;2023-02-19T04:24:39;12.80;99.90
7349;DHT22;13010;-33.424;-70.614;2023-02-19T04:27:30;12.90;99.90
7349;DHT22;13010;-33.424;-70.614;2023-02-19T04:30:20;12.70;99.90
7349;DHT22;13010;-33.424;-70.614;2023-02-19T04:33:11;12.60;99.90
7349;DHT22;13010;-33.424;-70.614;2023-02-19T04:35:59;12.10;99.90
7349;DHT22;13010;-33.424;-70.614;2023-02-19T04:38:48;11.80;99.90
7349;DHT22;13010;-33.424;-70.614;2023-02-19T04:41:37;11.60;99.90
7349;DHT22;13010;-33.424;-70.614;2023-02-19T04:44:25;11.60;99.90
7349;DHT22;13010;-33.424;-70.614;2023-02-19T04:47:15;11.60;99.90
7349;DHT22;13010;-33.424;-70.614;2023-02-19T04:50:06;11.50;99.90
7349;DHT22;13010;-33.424;-70.614;2023-02-19T04:52:55;11.60;99.90
7349;DHT22;13010;-33.424;-70.614;2023-02-19T04:55:44;11.90;99.90
7349;DHT22;13010;-33.424;-70.614;2023-02-19T04:58:33;11.70;99.90
7349;DHT22;13010;-33.424;-70.614;2023-02-19T05:01:22;11.40;99.90
7349;DHT22;13010;-33.424;-70.614;2023-02-19T05:04:11;11.20;99.90
7349;DHT22;13010;-33.424;-70.614;2023-02-19T05:07:01;10.90;99.90
7349;DHT22;13010;-33.424;-70.614;2023-02-19T05:09:50;10.70;99.90
7349;DHT22;13010;-33.424;-70.614;2023-02-19T05:12:39;10.90;99.90
7349;DHT22;13010;-33.424;-70.614;2023-02-19T05:15:28;11.10;99.90
7349;DHT22;13010;-33.424;-70.614;2023-02-19T05:18:16;11.00;99.90
7349;DHT22;13010;-33.424;-70.614;2023-02-19T05:21:05;11.10;99.90
7349;DHT22;13010;-33.424;-70.614;2023-02-19T05:23:56;11.20;99.90
7349;DHT22;13010;-33.424;-70.614;2023-02-19T05:26:45;11.20;99.90
7349;DHT22;13010;-33.424;-70.614;2023-02-19T05:29:33;11.40;99.90
7349;DHT22;13010;-33.424;-70.614;2023-02-19T05:32:22;11.40;99.90
7349;DHT22;13010;-33.424;-70.614;2023-02-19T05:35:11;11.60;99.90
7349;DHT22;13010;-33.424;-70.614;2023-02-19T05:38:00;11.80;99.90
7349;DHT22;13010;-33.424;-70.614;2023-02-19T05:40:50;11.80;99.90
7349;DHT22;13010;-33.424;-70.614;2023-02-19T05:43:39;11.80;99.90
7349;DHT22;13010;-33.424;-70.614;2023-02-19T05:46:29;11.70;99.90
7349;DHT22;13010;-33.424;-70.614;2023-02-19T05:49:18;11.60;99.90
7349;DHT22;13010;-33.424;-70.614;2023-02-19T05:52:06;11.70;99.90
7349;DHT22;13010;-33.424;-70.614;2023-02-19T05:54:55;11.60;99.90
7349;DHT22;13010;-33.424;-70.614;2023-02-19T05:57:47;11.50;99.90
7349;DHT22;13010;-33.424;-70.614;2023-02-19T06:00:36;11.50;99.90
7349;DHT22;13010;-33.424;-70.614;2023-02-19T06:03:25;11.60;99.90
7349;DHT22;13010;-33.424;-70.614;2023-02-19T06:06:14;11.60;99.90
7349;DHT22;13010;-33.424;-70.614;2023-02-19T06:09:04;11.50;99.90
7349;DHT22;13010;-33.424;-70.614;2023-02-19T06:11:53;11.30;99.90
7349;DHT22;13010;-33.424;-70.614;2023-02-19T06:14:44;11.30;99.90
7349;DHT22;13010;-33.424;-70.614;2023-02-19T06:17:34;11.00;99.90
7349;DHT22;13010;-33.424;-70.614;2023-02-19T06:20:23;10.60;99.90
7349;DHT22;13010;-33.424;-70.614;2023-02-19T06:23:11;10.40;99.90
7349;DHT22;13010;-33.424;-70.614;2023-02-19T06:26:06;10.40;99.90
7349;DHT22;13010;-33.424;-70.614;2023-02-19T06:28:55;10.40;99.90
7349;DHT22;13010;-33.424;-70.614;2023-02-19T06:31:46;10.30;99.90
7349;DHT22;13010;-33.424;-70.614;2023-02-19T06:34:35;10.20;99.90
7349;DHT22;13010;-33.424;-70.614;2023-02-19T06:37:24;10.10;99.90
7349;DHT22;13010;-33.424;-70.614;2023-02-19T06:40:13;10.00;99.90
7349;DHT22;13010;-33.424;-70.614;2023-02-19T06:43:02;10.00;99.90
7349;DHT22;13010;-33.424;-70.614;2023-02-19T06:45:52;9.70;99.90
7349;DHT22;13010;-33.424;-70.614;2023-02-19T06:48:43;9.70;99.90
7349;DHT22;13010;-33.424;-70.614;2023-02-19T06:51:33;9.60;99.90
7349;DHT22;13010;-33.424;-70.614;2023-02-19T06:54:21;9.70;99.90
7349;DHT22;13010;-33.424;-70.614;2023-02-19T06:57:10;9.70;99.90
7349;DHT22;13010;-33.424;-70.614;2023-02-19T06:59:59;9.40;99.90
7349;DHT22;13010;-33.424;-70.614;2023-02-19T07:02:49;9.20;99.90
7349;DHT22;13010;-33.424;-70.614;2023-02-19T07:05:43;9.10;99.90
7349;DHT22;13010;-33.424;-70.614;2023-02-19T07:08:31;9.20;99.90
7349;DHT22;13010;-33.424;-70.614;2023-02-19T07:11:21;9.30;99.90
7349;DHT22;13010;-33.424;-70.614;2023-02-19T07:14:14;9.50;99.90
7349;DHT22;13010;-33.424;-70.614;2023-02-19T07:17:03;9.60;99.90
7349;DHT22;13010;-33.424;-70.614;2023-02-19T07:19:52;9.70;99.90
7349;DHT22;13010;-33.424;-70.614;2023-02-19T07:22:43;9.60;99.90
7349;DHT22;13010;-33.424;-70.614;2023-02-19T07:25:31;9.50;99.90
7349;DHT22;13010;-33.424;-70.614;2023-02-19T07:28:20;9.50;99.90
7349;DHT22;13010;-33.424;-70.614;2023-02-19T07:31:09;9.40;99.90
7349;DHT22;13010;-33.424;-70.614;2023-02-19T07:33:58;9.30;99.90
7349;DHT22;13010;-33.424;-70.614;2023-02-19T07:36:46;9.10;99.90
7349;DHT22;13010;-33.424;-70.614;2023-02-19T07:39:37;9.30;99.90
7349;DHT22;13010;-33.424;-70.614;2023-02-19T07:42:26;9.20;99.90
7349;DHT22;13010;-33.424;-70.614;2023-02-19T07:45:15;9.00;99.90
7349;DHT22;13010;-33.424;-70.614;2023-02-19T07:48:04;8.90;99.90
7349;DHT22;13010;-33.424;-70.614;2023-02-19T07:50:54;9.00;99.90
7349;DHT22;13010;-33.424;-70.614;2023-02-19T07:53:43;9.00;99.90
7349;DHT22;13010;-33.424;-70.614;2023-02-19T07:56:34;8.70;99.90
7349;DHT22;13010;-33.424;-70.614;2023-02-19T07:59:22;8.60;99.90
7349;DHT22;13010;-33.424;-70.614;2023-02-19T08:02:16;8.60;99.90
7349;DHT22;13010;-33.424;-70.614;2023-02-19T08:05:21;8.60;99.90
7349;DHT22;13010;-33.424;-70.614;2023-02-19T08:08:10;8.40;99.90
7349;DHT22;13010;-33.424;-70.614;2023-02-19T08:11:03;8.50;99.90
7349;DHT22;13010;-33.424;-70.614;2023-02-19T08:14:10;8.50;99.90
7349;DHT22;13010;-33.424;-70.614;2023-02-19T08:17:00;8.40;99.90
7349;DHT22;13010;-33.424;-70.614;2023-02-19T08:19:49;8.20;99.90
7349;DHT22;13010;-33.424;-70.614;2023-02-19T08:22:37;8.10;99.90
7349;DHT22;13010;-33.424;-70.614;2023-02-19T08:25:26;8.20;99.90
7349;DHT22;13010;-33.424;-70.614;2023-02-19T08:28:15;8.30;99.90
7349;DHT22;13010;-33.424;-70.614;2023-02-19T08:31:07;8.50;99.90
7349;DHT22;13010;-33.424;-70.614;2023-02-19T08:33:56;8.60;99.90
7349;DHT22;13010;-33.424;-70.614;2023-02-19T08:36:45;8.60;99.90
7349;DHT22;13010;-33.424;-70.614;2023-02-19T08:39:33;8.60;99.90
7349;DHT22;13010;-33.424;-70.614;2023-02-19T08:42:22;8.70;99.90
7349;DHT22;13010;-33.424;-70.614;2023-02-19T08:45:11;8.50;99.90
7349;DHT22;13010;-33.424;-70.614;2023-02-19T08:48:02;8.80;99.90
7349;DHT22;13010;-33.424;-70.614;2023-02-19T08:50:55;8.60;99.90
7349;DHT22;13010;-33.424;-70.614;2023-02-19T08:53:43;8.40;99.90
7349;DHT22;13010;-33.424;-70.614;2023-02-19T08:56:33;8.10;99.90
7349;DHT22;13010;-33.424;-70.614;2023-02-19T08:59:21;8.00;99.90
7349;DHT22;13010;-33.424;-70.614;2023-02-19T09:02:10;8.00;99.90
7349;DHT22;13010;-33.424;-70.614;2023-02-19T09:05:04;7.90;99.90
7349;DHT22;13010;-33.424;-70.614;2023-02-19T09:07:54;8.00;99.90
7349;DHT22;13010;-33.424;-70.614;2023-02-19T09:10:42;8.00;99.90
7349;DHT22;13010;-33.424;-70.614;2023-02-19T09:13:31;8.00;99.90
7349;DHT22;13010;-33.424;-70.614;2023-02-19T09:16:20;8.20;99.90
7349;DHT22;13010;-33.424;-70.614;2023-02-19T09:19:08;8.10;99.90
7349;DHT22;13010;-33.424;-70.614;2023-02-19T09:21:59;8.60;99.90
7349;DHT22;13010;-33.424;-70.614;2023-02-19T09:24:48;8.70;99.90
7349;DHT22;13010;-33.424;-70.614;2023-02-19T09:27:37;8.70;99.90
7349;DHT22;13010;-33.424;-70.614;2023-02-19T09:30:25;8.70;99.90
7349;DHT22;13010;-33.424;-70.614;2023-02-19T09:33:14;8.60;99.90
7349;DHT22;13010;-33.424;-70.614;2023-02-19T09:36:03;8.20;99.90
7349;DHT22;13010;-33.424;-70.614;2023-02-19T09:38:54;7.80;99.90
7349;DHT22;13010;-33.424;-70.614;2023-02-19T09:41:47;7.80;99.90
7349;DHT22;13010;-33.424;-70.614;2023-02-19T09:44:38;7.90;99.90
7349;DHT22;13010;-33.424;-70.614;2023-02-19T09:47:29;7.60;99.90
7349;DHT22;13010;-33.424;-70.614;2023-02-19T09:50:21;7.50;99.90
7349;DHT22;13010;-33.424;-70.614;2023-02-19T09:53:16;7.60;99.90
7349;DHT22;13010;-33.424;-70.614;2023-02-19T09:56:09;7.50;99.90
7349;DHT22;13010;-33.424;-70.614;2023-02-19T09:58:59;7.70;99.90
7349;DHT22;13010;-33.424;-70.614;2023-02-19T10:01:51;7.90;99.90
7349;DHT22;13010;-33.424;-70.614;2023-02-19T10:04:43;8.00;99.90
7349;DHT22;13010;-33.424;-70.614;2023-02-19T10:07:37;7.90;99.90
7349;DHT22;13010;-33.424;-70.614;2023-02-19T10:10:29;7.90;99.90
7349;DHT22;13010;-33.424;-70.614;2023-02-19T10:13:21;7.80;99.90
7349;DHT22;13010;-33.424;-70.614;2023-02-19T10:16:12;7.60;99.90
7349;DHT22;13010;-33.424;-70.614;2023-02-19T10:19:02;7.60;99.90
7349;DHT22;13010;-33.424;-70.614;2023-02-19T10:21:51;7.50;99.90
7349;DHT22;13010;-33.424;-70.614;2023-02-19T10:24:42;7.40;99.90
7349;DHT22;13010;-33.424;-70.614;2023-02-19T10:27:31;7.30;99.90
7349;DHT22;13010;-33.424;-70.614;2023-02-19T10:30:23;7.60;99.90
7349;DHT22;13010;-33.424;-70.614;2023-02-19T10:33:13;7.70;99.90
7349;DHT22;13010;-33.424;-70.614;2023-02-19T10:36:05;7.70;99.90
7349;DHT22;13010;-33.424;-70.614;2023-02-19T11:34:21;11.20;99.90
7349;DHT22;13010;-33.424;-70.614;2023-02-19T11:37:15;13.40;99.90
7349;DHT22;13010;-33.424;-70.614;2023-02-19T11:40:07;13.90;99.90
7349;DHT22;13010;-33.424;-70.614;2023-02-19T11:43:00;14.40;99.90
7349;DHT22;13010;-33.424;-70.614;2023-02-19T11:45:59;17.10;99.90
7349;DHT22;13010;-33.424;-70.614;2023-02-19T11:48:55;21.80;99.90
7349;DHT22;13010;-33.424;-70.614;2023-02-19T11:52:03;24.70;99.90
7349;DHT22;13010;-33.424;-70.614;2023-02-19T11:54:58;27.10;91.00
7349;DHT22;13010;-33.424;-70.614;2023-02-19T11:57:56;28.70;64.80
7349;DHT22;13010;-33.424;-70.614;2023-02-19T12:00:54;29.60;56.00
7349;DHT22;13010;-33.424;-70.614;2023-02-19T12:07:22;31.00;42.30
7349;DHT22;13010;-33.424;-70.614;2023-02-19T12:10:18;31.50;38.10
7349;DHT22;13010;-33.424;-70.614;2023-02-19T12:13:12;31.70;32.80
7349;DHT22;13010;-33.424;-70.614;2023-02-19T12:16:11;32.60;30.70
7349;DHT22;13010;-33.424;-70.614;2023-02-19T12:19:19;33.30;26.70
7349;DHT22;13010;-33.424;-70.614;2023-02-19T12:22:27;33.30;25.50
7349;DHT22;13010;-33.424;-70.614;2023-02-19T12:25:28;33.00;22.70
7349;DHT22;13010;-33.424;-70.614;2023-02-19T12:28:41;32.60;23.40
7349;DHT22;13010;-33.424;-70.614;2023-02-19T12:31:51;32.80;22.30
7349;DHT22;13010;-33.424;-70.614;2023-02-19T12:38:04;34.20;19.70
7349;DHT22;13010;-33.424;-70.614;2023-02-19T12:41:18;34.90;17.50
7349;DHT22;13010;-33.424;-70.614;2023-02-19T12:44:15;35.60;16.70
7349;DHT22;13010;-33.424;-70.614;2023-02-19T12:47:06;35.70;16.10
7349;DHT22;13010;-33.424;-70.614;2023-02-19T12:50:04;35.80;16.20
7349;DHT22;13010;-33.424;-70.614;2023-02-19T12:53:00;37.10;14.40
7349;DHT22;13010;-33.424;-70.614;2023-02-19T12:55:53;37.20;12.50
7349;DHT22;13010;-33.424;-70.614;2023-02-19T12:58:47;37.50;12.20
7349;DHT22;13010;-33.424;-70.614;2023-02-19T13:01:41;38.90;10.50
7349;DHT22;13010;-33.424;-70.614;2023-02-19T13:04:40;37.70;9.60
7349;DHT22;13010;-33.424;-70.614;2023-02-19T13:07:35;38.30;9.50
7349;DHT22;13010;-33.424;-70.614;2023-02-19T13:10:30;38.20;8.80
7349;DHT22;13010;-33.424;-70.614;2023-02-19T13:13:23;38.40;8.40
7349;DHT22;13010;-33.424;-70.614;2023-02-19T13:16:15;39.20;7.90
7349;DHT22;13010;-33.424;-70.614;2023-02-19T13:19:09;39.40;7.10
7349;DHT22;13010;-33.424;-70.614;2023-02-19T13:22:06;41.10;6.30
7349;DHT22;13010;-33.424;-70.614;2023-02-19T13:25:17;42.50;4.40
7349;DHT22;13010;-33.424;-70.614;2023-02-19T13:28:27;42.90;3.50
7349;DHT22;13010;-33.424;-70.614;2023-02-19T13:31:36;42.60;2.70
7349;DHT22;13010;-33.424;-70.614;2023-02-19T13:34:38;43.30;3.20
7349;DHT22;13010;-33.424;-70.614;2023-02-19T13:37:33;43.10;3.10
7349;DHT22;13010;-33.424;-70.614;2023-02-19T13:40:29;41.50;3.90
7349;DHT22;13010;-33.424;-70.614;2023-02-19T13:43:24;43.50;2.90
7349;DHT22;13010;-33.424;-70.614;2023-02-19T13:46:15;44.70;2.40
7349;DHT22;13010;-33.424;-70.614;2023-02-19T13:52:48;46.40;1.00
7349;DHT22;13010;-33.424;-70.614;2023-02-19T13:55:54;45.70;1.40
7349;DHT22;13010;-33.424;-70.614;2023-02-19T13:59:01;45.90;1.00
7349;DHT22;13010;-33.424;-70.614;2023-02-19T14:08:51;48.00;1.00
7349;DHT22;13010;-33.424;-70.614;2023-02-19T14:12:02;48.80;1.00
7349;DHT22;13010;-33.424;-70.614;2023-02-19T14:14:53;49.30;1.00
7349;DHT22;13010;-33.424;-70.614;2023-02-19T14:17:43;48.20;1.00
7349;DHT22;13010;-33.424;-70.614;2023-02-19T14:20:42;47.10;1.00
7349;DHT22;13010;-33.424;-70.614;2023-02-19T14:23:31;46.60;1.00
7349;DHT22;13010;-33.424;-70.614;2023-02-19T14:26:21;45.20;1.00
7349;DHT22;13010;-33.424;-70.614;2023-02-19T14:29:14;46.70;1.00
7349;DHT22;13010;-33.424;-70.614;2023-02-19T14:32:07;47.90;1.00
7349;DHT22;13010;-33.424;-70.614;2023-02-19T14:34:58;47.60;1.00
7349;DHT22;13010;-33.424;-70.614;2023-02-19T14:37:48;49.70;1.00
7349;DHT22;13010;-33.424;-70.614;2023-02-19T14:40:39;47.70;1.00
7349;DHT22;13010;-33.424;-70.614;2023-02-19T14:43:30;45.90;1.00
7349;DHT22;13010;-33.424;-70.614;2023-02-19T14:46:24;49.10;1.00
7349;DHT22;13010;-33.424;-70.614;2023-02-19T14:49:20;51.00;1.00
7349;DHT22;13010;-33.424;-70.614;2023-02-19T14:52:13;50.70;1.00
7349;DHT22;13010;-33.424;-70.614;2023-02-19T14:55:08;50.50;1.00
7349;DHT22;13010;-33.424;-70.614;2023-02-19T14:57:59;51.60;1.00
7349;DHT22;13010;-33.424;-70.614;2023-02-19T15:00:49;51.40;1.00
7349;DHT22;13010;-33.424;-70.614;2023-02-19T15:03:39;50.20;1.00
7349;DHT22;13010;-33.424;-70.614;2023-02-19T15:06:30;47.50;1.00
7349;DHT22;13010;-33.424;-70.614;2023-02-19T15:09:20;49.40;1.00
7349;DHT22;13010;-33.424;-70.614;2023-02-19T15:12:16;50.10;1.00
7349;DHT22;13010;-33.424;-70.614;2023-02-19T15:15:06;50.50;1.00
7349;DHT22;13010;-33.424;-70.614;2023-02-19T15:17:57;51.80;1.00
7349;DHT22;13010;-33.424;-70.614;2023-02-19T15:20:47;52.30;1.00
7349;DHT22;13010;-33.424;-70.614;2023-02-19T15:23:39;50.50;1.00
7349;DHT22;13010;-33.424;-70.614;2023-02-19T15:26:33;48.20;1.00
7349;DHT22;13010;-33.424;-70.614;2023-02-19T15:29:24;49.60;1.00
7349;DHT22;13010;-33.424;-70.614;2023-02-19T15:32:17;50.40;1.00
7349;DHT22;13010;-33.424;-70.614;2023-02-19T15:35:17;49.70;1.00
7349;DHT22;13010;-33.424;-70.614;2023-02-19T15:38:10;51.50;1.00
7349;DHT22;13010;-33.424;-70.614;2023-02-19T15:41:01;49.80;1.00
7349;DHT22;13010;-33.424;-70.614;2023-02-19T15:43:52;49.70;1.00
7349;DHT22;13010;-33.424;-70.614;2023-02-19T15:46:41;48.90;1.00
7349;DHT22;13010;-33.424;-70.614;2023-02-19T15:49:38;48.30;1.00
7349;DHT22;13010;-33.424;-70.614;2023-02-19T15:52:32;49.90;1.00
7349;DHT22;13010;-33.424;-70.614;2023-02-19T15:55:30;48.30;1.00
7349;DHT22;13010;-33.424;-70.614;2023-02-19T15:58:26;46.70;1.00
7349;DHT22;13010;-33.424;-70.614;2023-02-19T16:01:20;46.90;1.00
7349;DHT22;13010;-33.424;-70.614;2023-02-19T16:04:11;47.80;1.00
7349;DHT22;13010;-33.424;-70.614;2023-02-19T16:07:02;49.40;1.00
7349;DHT22;13010;-33.424;-70.614;2023-02-19T16:10:16;49.60;1.00
7349;DHT22;13010;-33.424;-70.614;2023-02-19T16:13:06;49.80;1.00
7349;DHT22;13010;-33.424;-70.614;2023-02-19T16:16:04;49.60;1.00
7349;DHT22;13010;-33.424;-70.614;2023-02-19T16:18:54;49.70;1.00
7349;DHT22;13010;-33.424;-70.614;2023-02-19T16:21:43;49.60;1.00
7349;DHT22;13010;-33.424;-70.614;2023-02-19T16:24:34;48.70;1.00
7349;DHT22;13010;-33.424;-70.614;2023-02-19T16:27:32;48.40;1.00
7349;DHT22;13010;-33.424;-70.614;2023-02-19T16:30:27;47.90;1.00
7349;DHT22;13010;-33.424;-70.614;2023-02-19T16:33:39;46.00;1.00
7349;DHT22;13010;-33.424;-70.614;2023-02-19T16:36:37;44.50;1.00
7349;DHT22;13010;-33.424;-70.614;2023-02-19T16:39:26;45.20;1.00
7349;DHT22;13010;-33.424;-70.614;2023-02-19T16:42:17;46.20;1.00
7349;DHT22;13010;-33.424;-70.614;2023-02-19T16:45:08;45.90;1.00
7349;DHT22;13010;-33.424;-70.614;2023-02-19T16:48:02;43.70;1.00
7349;DHT22;13010;-33.424;-70.614;2023-02-19T16:50:54;42.90;1.00
7349;DHT22;13010;-33.424;-70.614;2023-02-19T16:53:44;42.70;1.00
7349;DHT22;13010;-33.424;-70.614;2023-02-19T16:56:33;44.20;1.00
7349;DHT22;13010;-33.424;-70.614;2023-02-19T16:59:22;43.80;1.00
7349;DHT22;13010;-33.424;-70.614;2023-02-19T17:02:16;43.80;1.00
7349;DHT22;13010;-33.424;-70.614;2023-02-19T17:05:06;44.90;1.00
7349;DHT22;13010;-33.424;-70.614;2023-02-19T17:07:56;45.70;1.00
7349;DHT22;13010;-33.424;-70.614;2023-02-19T17:10:45;44.10;1.00
7349;DHT22;13010;-33.424;-70.614;2023-02-19T17:13:34;43.80;1.00
7349;DHT22;13010;-33.424;-70.614;2023-02-19T17:16:24;44.10;1.00
7349;DHT22;13010;-33.424;-70.614;2023-02-19T17:19:14;43.40;1.00
7349;DHT22;13010;-33.424;-70.614;2023-02-19T17:22:03;42.80;1.20
7349;DHT22;13010;-33.424;-70.614;2023-02-19T17:24:54;43.90;1.00
7349;DHT22;13010;-33.424;-70.614;2023-02-19T17:27:45;44.10;1.00
7349;DHT22;13010;-33.424;-70.614;2023-02-19T17:30:34;44.70;1.00
7349;DHT22;13010;-33.424;-70.614;2023-02-19T17:33:23;44.50;1.00
7349;DHT22;13010;-33.424;-70.614;2023-02-19T17:36:17;44.40;1.00
7349;DHT22;13010;-33.424;-70.614;2023-02-19T17:39:08;44.10;1.00
7349;DHT22;13010;-33.424;-70.614;2023-02-19T17:42:02;43.80;1.00
7349;DHT22;13010;-33.424;-70.614;2023-02-19T17:44:51;44.40;1.00
7349;DHT22;13010;-33.424;-70.614;2023-02-19T17:47:39;44.10;1.00
7349;DHT22;13010;-33.424;-70.614;2023-02-19T17:50:29;43.60;1.00
7349;DHT22;13010;-33.424;-70.614;2023-02-19T17:53:19;43.20;1.00
7349;DHT22;13010;-33.424;-70.614;2023-02-19T17:56:09;41.90;1.00
7349;DHT22;13010;-33.424;-70.614;2023-02-19T17:59:01;41.20;1.00
7349;DHT22;13010;-33.424;-70.614;2023-02-19T18:01:50;41.50;1.00
7349;DHT22;13010;-33.424;-70.614;2023-02-19T18:04:39;41.90;1.00
7349;DHT22;13010;-33.424;-70.614;2023-02-19T18:07:27;42.30;1.00
7349;DHT22;13010;-33.424;-70.614;2023-02-19T18:10:17;43.70;1.00
7349;DHT22;13010;-33.424;-70.614;2023-02-19T18:13:09;42.60;1.00
7349;DHT22;13010;-33.424;-70.614;2023-02-19T18:16:00;43.00;1.30
7349;DHT22;13010;-33.424;-70.614;2023-02-19T18:18:48;42.50;1.00
7349;DHT22;13010;-33.424;-70.614;2023-02-19T18:21:38;42.60;1.00
7349;DHT22;13010;-33.424;-70.614;2023-02-19T18:24:26;41.50;1.00
7349;DHT22;13010;-33.424;-70.614;2023-02-19T18:27:16;39.80;1.70
7349;DHT22;13010;-33.424;-70.614;2023-02-19T18:30:06;38.00;2.10
7349;DHT22;13010;-33.424;-70.614;2023-02-19T18:32:57;35.60;4.00
7349;DHT22;13010;-33.424;-70.614;2023-02-19T18:35:47;34.50;6.30
7349;DHT22;13010;-33.424;-70.614;2023-02-19T18:38:36;34.10;7.00
7349;DHT22;13010;-33.424;-70.614;2023-02-19T18:41:24;34.10;8.50
7349;DHT22;13010;-33.424;-70.614;2023-02-19T18:44:17;33.90;6.90
7349;DHT22;13010;-33.424;-70.614;2023-02-19T18:47:06;33.90;7.30
7349;DHT22;13010;-33.424;-70.614;2023-02-19T18:50:00;33.90;8.60
7349;DHT22;13010;-33.424;-70.614;2023-02-19T18:52:50;33.90;7.80
7349;DHT22;13010;-33.424;-70.614;2023-02-19T18:55:39;33.70;7.90
7349;DHT22;13010;-33.424;-70.614;2023-02-19T18:58:28;34.30;7.30
7349;DHT22;13010;-33.424;-70.614;2023-02-19T19:01:17;35.20;5.40